sensor_id;sensor_type;location;lat;lon;timestamp;temperature;humidity
31369;DHT22;18004;48.416;10.066;2023-07-30T00:10:26;17.90;99.90
31369;DHT22;18004;48.416;10.066;2023-07-30T00:19:53;17.90;99.90
31369;DHT22;18004;48.416;10.066;2023-07-30T00:22:18;17.90;99.90
31369;DHT22;18004;48.416;10.066;2023-07-30T00:24:44;17.80;99.90
31369;DHT22;18004;48.416;10.066;2023-07-30T00:27:10;17.80;99.90
31369;DHT22;18004;48.416;10.066;2023-07-30T00:29:36;17.80;99.90
31369;DHT22;18004;48.416;10.066;2023-07-30T00:32:01;17.80;99.90
31369;DHT22;18004;48.416;10.066;2023-07-30T00:34:36;17.80;99.90
31369;DHT22;18004;48.416;10.066;2023-07-30T00:39:19;17.80;99.90
31369;DHT22;18004;48.416;10.066;2023-07-30T00:41:39;17.80;99.90
31369;DHT22;18004;48.416;10.066;2023-07-30T00:44:47;17.80;99.90
31369;DHT22;18004;48.416;10.066;2023-07-30T00:50:40;17.80;99.90
31369;DHT22;18004;48.416;10.066;2023-07-30T00:53:07;17.70;99.90
31369;DHT22;18004;48.416;10.066;2023-07-30T00:55:34;17.70;99.90
31369;DHT22;18004;48.416;10.066;2023-07-30T00:58:39;17.70;99.90
31369;DHT22;18004;48.416;10.066;2023-07-30T01:14:53;17.70;99.90
31369;DHT22;18004;48.416;10.066;2023-07-30T01:34:00;17.70;99.90
31369;DHT22;18004;48.416;10.066;2023-07-30T01:37:00;17.70;99.90
31369;DHT22;18004;48.416;10.066;2023-07-30T01:39:27;17.70;99.90
31369;DHT22;18004;48.416;10.066;2023-07-30T01:42:07;17.60;99.90
31369;DHT22;18004;48.416;10.066;2023-07-30T01:51:15;17.60;99.90
31369;DHT22;18004;48.416;10.066;2023-07-30T01:54:22;17.50;99.90
31369;DHT22;18004;48.416;10.066;2023-07-30T01:56:48;17.50;99.90
31369;DHT22;18004;48.416;10.066;2023-07-30T01:59:14;17.40;99.90
31369;DHT22;18004;48.416;10.066;2023-07-30T02:01:41;17.40;99.90
31369;DHT22;18004;48.416;10.066;2023-07-30T02:04:07;17.40;99.90
31369;DHT22;18004;48.416;10.066;2023-07-30T02:06:33;17.30;99.90
31369;DHT22;18004;48.416;10.066;2023-07-30T02:08:58;17.30;99.90
31369;DHT22;18004;48.416;10.066;2023-07-30T02:11:24;17.20;99.90
31369;DHT22;18004;48.416;10.066;2023-07-30T02:13:50;17.20;99.90
31369;DHT22;18004;48.416;10.066;2023-07-30T02:16:16;17.20;99.90
31369;DHT22;18004;48.416;10.066;2023-07-30T02:18:41;17.20;99.90
31369;DHT22;18004;48.416;10.066;2023-07-30T02:21:07;17.20;99.90
31369;DHT22;18004;48.416;10.066;2023-07-30T02:23:33;17.10;99.90
31369;DHT22;18004;48.416;10.066;2023-07-30T02:25:59;17.10;99.90
31369;DHT22;18004;48.416;10.066;2023-07-30T02:28:25;17.10;99.90
31369;DHT22;18004;48.416;10.066;2023-07-30T02:30:50;17.10;99.90
31369;DHT22;18004;48.416;10.066;2023-07-30T02:33:16;17.00;99.90
31369;DHT22;18004;48.416;10.066;2023-07-30T02:35:43;17.00;99.90
31369;DHT22;18004;48.416;10.066;2023-07-30T02:38:09;17.00;99.90
31369;DHT22;18004;48.416;10.066;2023-07-30T02:40:35;17.00;99.90
31369;DHT22;18004;48.416;10.066;2023-07-30T02:43:00;17.00;99.90
31369;DHT22;18004;48.416;10.066;2023-07-30T02:45:26;16.90;99.90
31369;DHT22;18004;48.416;10.066;2023-07-30T02:47:52;16.90;99.90
31369;DHT22;18004;48.416;10.066;2023-07-30T02:50:18;16.90;99.90
31369;DHT22;18004;48.416;10.066;2023-07-30T02:52:44;16.90;99.90
31369;DHT22;18004;48.416;10.066;2023-07-30T02:55:09;16.90;99.90
31369;DHT22;18004;48.416;10.066;2023-07-30T02:57:35;16.90;99.90
31369;DHT22;18004;48.416;10.066;2023-07-30T03:00:02;16.90;99.90
31369;DHT22;18004;48.416;10.066;2023-07-30T03:02:32;16.90;99.90
31369;DHT22;18004;48.416;10.066;2023-07-30T03:05:01;16.90;99.90
31369;DHT22;18004;48.416;10.066;2023-07-30T03:07:28;16.90;99.90
31369;DHT22;18004;48.416;10.066;2023-07-30T03:09:54;16.80;99.90
31369;DHT22;18004;48.416;10.066;2023-07-30T03:12:19;16.80;99.90
31369;DHT22;18004;48.416;10.066;2023-07-30T03:14:45;16.80;99.90
31369;DHT22;18004;48.416;10.066;2023-07-30T03:17:11;16.80;99.90
31369;DHT22;18004;48.416;10.066;2023-07-30T03:19:36;16.80;99.90
31369;DHT22;18004;48.416;10.066;2023-07-30T03:22:02;16.80;99.90
31369;DHT22;18004;48.416;10.066;2023-07-30T03:24:28;16.80;99.90
31369;DHT22;18004;48.416;10.066;2023-07-30T03:26:54;16.80;99.90
31369;DHT22;18004;48.416;10.066;2023-07-30T03:29:19;16.70;99.90
31369;DHT22;18004;48.416;10.066;2023-07-30T03:31:45;16.70;99.90
31369;DHT22;18004;48.416;10.066;2023-07-30T03:34:11;16.70;99.90
31369;DHT22;18004;48.416;10.066;2023-07-30T03:36:37;16.70;99.90
31369;DHT22;18004;48.416;10.066;2023-07-30T03:39:02;16.60;99.90
31369;DHT22;18004;48.416;10.066;2023-07-30T03:41:28;16.60;99.90
31369;DHT22;18004;48.416;10.066;2023-07-30T03:43:54;16.60;99.90
31369;DHT22;18004;48.416;10.066;2023-07-30T03:46:19;16.60;99.90
31369;DHT22;18004;48.416;10.066;2023-07-30T03:48:46;16.60;99.90
31369;DHT22;18004;48.416;10.066;2023-07-30T03:51:12;16.60;99.90
31369;DHT22;18004;48.416;10.066;2023-07-30T03:53:38;16.60;99.90
31369;DHT22;18004;48.416;10.066;2023-07-30T03:56:03;16.60;99.90
31369;DHT22;18004;48.416;10.066;2023-07-30T03:58:29;16.60;99.90
31369;DHT22;18004;48.416;10.066;2023-07-30T04:00:56;16.60;99.90
31369;DHT22;18004;48.416;10.066;2023-07-30T04:03:24;16.60;99.90
31369;DHT22;18004;48.416;10.066;2023-07-30T04:05:50;16.50;99.90
31369;DHT22;18004;48.416;10.066;2023-07-30T04:08:16;16.60;99.90
31369;DHT22;18004;48.416;10.066;2023-07-30T04:10:42;16.50;99.90
31369;DHT22;18004;48.416;10.066;2023-07-30T04:13:08;16.50;99.90
31369;DHT22;18004;48.416;10.066;2023-07-30T04:15:34;16.50;99.90
31369;DHT22;18004;48.416;10.066;2023-07-30T04:18:09;16.50;99.90
31369;DHT22;18004;48.416;10.066;2023-07-30T04:20:34;16.60;99.90
31369;DHT22;18004;48.416;10.066;2023-07-30T04:23:00;16.50;99.90
31369;DHT22;18004;48.416;10.066;2023-07-30T04:25:26;16.50;99.90
31369;DHT22;18004;48.416;10.066;2023-07-30T04:27:51;16.50;99.90
31369;DHT22;18004;48.416;10.066;2023-07-30T04:30:17;16.50;99.90
31369;DHT22;18004;48.416;10.066;2023-07-30T04:32:43;16.60;99.90
31369;DHT22;18004;48.416;10.066;2023-07-30T04:35:09;16.50;99.90
31369;DHT22;18004;48.416;10.066;2023-07-30T04:37:34;16.50;99.90
31369;DHT22;18004;48.416;10.066;2023-07-30T04:40:09;16.60;99.90
31369;DHT22;18004;48.416;10.066;2023-07-30T04:42:35;16.60;99.90
31369;DHT22;18004;48.416;10.066;2023-07-30T04:45:08;16.60;99.90
31369;DHT22;18004;48.416;10.066;2023-07-30T04:47:46;16.60;99.90
31369;DHT22;18004;48.416;10.066;2023-07-30T04:50:12;16.60;99.90
31369;DHT22;18004;48.416;10.066;2023-07-30T04:52:38;16.70;99.90
31369;DHT22;18004;48.416;10.066;2023-07-30T04:55:04;16.70;99.90
31369;DHT22;18004;48.416;10.066;2023-07-30T04:57:30;16.70;99.90
31369;DHT22;18004;48.416;10.066;2023-07-30T04:59:56;16.80;99.90
31369;DHT22;18004;48.416;10.066;2023-07-30T05:02:21;16.80;99.90
31369;DHT22;18004;48.416;10.066;2023-07-30T05:04:47;16.90;99.90
31369;DHT22;18004;48.416;10.066;2023-07-30T05:07:13;16.90;99.90
31369;DHT22;18004;48.416;10.066;2023-07-30T05:09:59;17.00;99.90
31369;DHT22;18004;48.416;10.066;2023-07-30T05:12:25;17.00;99.90
31369;DHT22;18004;48.416;10.066;2023-07-30T05:14:50;17.10;99.90
31369;DHT22;18004;48.416;10.066;2023-07-30T05:17:16;17.10;99.90
31369;DHT22;18004;48.416;10.066;2023-07-30T05:19:42;17.10;99.90
31369;DHT22;18004;48.416;10.066;2023-07-30T05:22:08;17.10;99.90
31369;DHT22;18004;48.416;10.066;2023-07-30T05:24:34;17.10;99.90
31369;DHT22;18004;48.416;10.066;2023-07-30T05:27:02;17.10;99.90
31369;DHT22;18004;48.416;10.066;2023-07-30T05:33:32;17.20;99.90
31369;DHT22;18004;48.416;10.066;2023-07-30T05:35:57;17.20;99.90
31369;DHT22;18004;48.416;10.066;2023-07-30T05:38:23;17.20;99.90
31369;DHT22;18004;48.416;10.066;2023-07-30T05:40:49;17.20;99.90
31369;DHT22;18004;48.416;10.066;2023-07-30T05:43:15;17.30;99.90
31369;DHT22;18004;48.416;10.066;2023-07-30T05:45:41;17.30;99.90
31369;DHT22;18004;48.416;10.066;2023-07-30T05:48:06;17.30;99.90
31369;DHT22;18004;48.416;10.066;2023-07-30T05:50:32;17.40;99.90
31369;DHT22;18004;48.416;10.066;2023-07-30T05:52:58;17.30;99.90
31369;DHT22;18004;48.416;10.066;2023-07-30T05:55:24;17.30;99.90
31369;DHT22;18004;48.416;10.066;2023-07-30T05:57:49;17.30;99.90
31369;DHT22;18004;48.416;10.066;2023-07-30T06:00:15;17.40;99.90
31369;DHT22;18004;48.416;10.066;2023-07-30T06:02:42;17.40;99.90
31369;DHT22;18004;48.416;10.066;2023-07-30T06:05:08;17.40;99.90
31369;DHT22;18004;48.416;10.066;2023-07-30T06:07:33;17.40;99.90
31369;DHT22;18004;48.416;10.066;2023-07-30T06:09:59;17.50;99.90
31369;DHT22;18004;48.416;10.066;2023-07-30T06:12:47;17.60;99.90
31369;DHT22;18004;48.416;10.066;2023-07-30T06:15:42;17.70;99.90
31369;DHT22;18004;48.416;10.066;2023-07-30T06:18:16;17.70;99.90
31369;DHT22;18004;48.416;10.066;2023-07-30T06:20:41;17.90;99.90
31369;DHT22;18004;48.416;10.066;2023-07-30T06:23:07;17.90;99.90
31369;DHT22;18004;48.416;10.066;2023-07-30T06:25:33;18.00;99.90
31369;DHT22;18004;48.416;10.066;2023-07-30T06:27:58;18.00;99.90
31369;DHT22;18004;48.416;10.066;2023-07-30T06:30:24;18.00;99.90
31369;DHT22;18004;48.416;10.066;2023-07-30T06:32:50;18.10;99.90
31369;DHT22;18004;48.416;10.066;2023-07-30T06:35:16;18.20;99.90
31369;DHT22;18004;48.416;10.066;2023-07-30T06:37:42;18.30;99.90
31369;DHT22;18004;48.416;10.066;2023-07-30T06:40:08;18.30;99.90
31369;DHT22;18004;48.416;10.066;2023-07-30T06:42:34;18.40;99.90
31369;DHT22;18004;48.416;10.066;2023-07-30T06:45:00;18.50;99.90
31369;DHT22;18004;48.416;10.066;2023-07-30T06:47:25;18.50;99.90
31369;DHT22;18004;48.416;10.066;2023-07-30T06:49:51;18.60;99.90
31369;DHT22;18004;48.416;10.066;2023-07-30T06:52:17;18.80;99.90
31369;DHT22;18004;48.416;10.066;2023-07-30T06:54:43;18.80;99.90
31369;DHT22;18004;48.416;10.066;2023-07-30T06:57:08;18.90;99.90
31369;DHT22;18004;48.416;10.066;2023-07-30T06:59:34;19.00;99.90
31369;DHT22;18004;48.416;10.066;2023-07-30T07:05:02;19.30;99.90
31369;DHT22;18004;48.416;10.066;2023-07-30T07:08:16;19.30;99.90
31369;DHT22;18004;48.416;10.066;2023-07-30T07:10:58;19.50;99.90
31369;DHT22;18004;48.416;10.066;2023-07-30T07:13:24;19.50;99.90
31369;DHT22;18004;48.416;10.066;2023-07-30T07:26:23;20.20;99.90
31369;DHT22;18004;48.416;10.066;2023-07-30T07:36:52;20.60;99.90
31369;DHT22;18004;48.416;10.066;2023-07-30T07:40:10;20.50;99.90
31369;DHT22;18004;48.416;10.066;2023-07-30T07:50:11;20.80;99.90
31369;DHT22;18004;48.416;10.066;2023-07-30T07:56:08;21.30;99.90
31369;DHT22;18004;48.416;10.066;2023-07-30T07:58:37;21.70;99.90
31369;DHT22;18004;48.416;10.066;2023-07-30T08:01:08;21.80;99.90
31369;DHT22;18004;48.416;10.066;2023-07-30T08:03:52;21.80;99.90
31369;DHT22;18004;48.416;10.066;2023-07-30T08:06:36;22.00;99.90
31369;DHT22;18004;48.416;10.066;2023-07-30T08:10:09;22.30;99.90
31369;DHT22;18004;48.416;10.066;2023-07-30T08:12:54;22.60;99.90
31369;DHT22;18004;48.416;10.066;2023-07-30T08:19:15;22.70;99.90
31369;DHT22;18004;48.416;10.066;2023-07-30T08:53:24;22.30;99.90
31369;DHT22;18004;48.416;10.066;2023-07-30T09:07:11;20.10;99.90
31369;DHT22;18004;48.416;10.066;2023-07-30T09:10:49;20.00;99.90
31369;DHT22;18004;48.416;10.066;2023-07-30T09:14:06;19.70;99.90
31369;DHT22;18004;48.416;10.066;2023-07-30T09:16:33;19.70;99.90
31369;DHT22;18004;48.416;10.066;2023-07-30T09:19:18;19.90;99.90
31369;DHT22;18004;48.416;10.066;2023-07-30T09:26:26;20.40;99.90
31369;DHT22;18004;48.416;10.066;2023-07-30T09:29:41;20.70;99.90
31369;DHT22;18004;48.416;10.066;2023-07-30T09:45:20;21.60;99.90
31369;DHT22;18004;48.416;10.066;2023-07-30T09:52:02;21.30;99.90
31369;DHT22;18004;48.416;10.066;2023-07-30T09:57:44;21.60;99.90
31369;DHT22;18004;48.416;10.066;2023-07-30T10:03:53;22.10;99.90
31369;DHT22;18004;48.416;10.066;2023-07-30T10:06:25;21.90;99.90
31369;DHT22;18004;48.416;10.066;2023-07-30T10:13:50;22.60;99.90
31369;DHT22;18004;48.416;10.066;2023-07-30T10:17:09;22.70;99.90
31369;DHT22;18004;48.416;10.066;2023-07-30T10:39:43;23.70;91.20
31369;DHT22;18004;48.416;10.066;2023-07-30T10:42:43;23.30;89.40
31369;DHT22;18004;48.416;10.066;2023-07-30T10:45:10;22.60;99.90
31369;DHT22;18004;48.416;10.066;2023-07-30T10:47:51;22.00;99.90
31369;DHT22;18004;48.416;10.066;2023-07-30T10:50:24;21.70;99.90
31369;DHT22;18004;48.416;10.066;2023-07-30T10:56:25;21.40;99.90
31369;DHT22;18004;48.416;10.066;2023-07-30T10:58:52;21.50;99.90
31369;DHT22;18004;48.416;10.066;2023-07-30T11:05:41;22.50;97.40
31369;DHT22;18004;48.416;10.066;2023-07-30T11:08:07;22.20;92.70
31369;DHT22;18004;48.416;10.066;2023-07-30T11:10:50;22.20;90.80
31369;DHT22;18004;48.416;10.066;2023-07-30T11:17:10;22.20;87.60
31369;DHT22;18004;48.416;10.066;2023-07-30T11:19:49;22.20;93.40
31369;DHT22;18004;48.416;10.066;2023-07-30T11:22:48;22.50;90.70
31369;DHT22;18004;48.416;10.066;2023-07-30T11:30:01;21.90;76.40
31369;DHT22;18004;48.416;10.066;2023-07-30T11:32:29;22.30;80.20
31369;DHT22;18004;48.416;10.066;2023-07-30T11:34:55;22.70;67.70
31369;DHT22;18004;48.416;10.066;2023-07-30T11:37:22;22.80;61.80
31369;DHT22;18004;48.416;10.066;2023-07-30T11:39:49;22.80;65.40
31369;DHT22;18004;48.416;10.066;2023-07-30T11:42:18;22.70;60.00
31369;DHT22;18004;48.416;10.066;2023-07-30T11:44:44;22.70;52.40
31369;DHT22;18004;48.416;10.066;2023-07-30T11:47:50;22.70;49.20
31369;DHT22;18004;48.416;10.066;2023-07-30T11:50:16;22.80;44.30
31369;DHT22;18004;48.416;10.066;2023-07-30T11:52:52;22.80;42.80
31369;DHT22;18004;48.416;10.066;2023-07-30T11:55:18;22.70;37.30
31369;DHT22;18004;48.416;10.066;2023-07-30T11:57:45;22.70;33.90
31369;DHT22;18004;48.416;10.066;2023-07-30T12:00:11;22.60;31.30
31369;DHT22;18004;48.416;10.066;2023-07-30T12:02:38;22.40;30.60
31369;DHT22;18004;48.416;10.066;2023-07-30T12:05:10;22.60;36.20
31369;DHT22;18004;48.416;10.066;2023-07-30T12:07:41;22.40;38.90
31369;DHT22;18004;48.416;10.066;2023-07-30T12:14:03;22.70;48.80
31369;DHT22;18004;48.416;10.066;2023-07-30T12:17:36;23.00;33.60
31369;DHT22;18004;48.416;10.066;2023-07-30T12:20:53;23.10;30.90
31369;DHT22;18004;48.416;10.066;2023-07-30T12:23:48;23.00;33.70
31369;DHT22;18004;48.416;10.066;2023-07-30T12:45:49;24.20;19.50
31369;DHT22;18004;48.416;10.066;2023-07-30T12:48:40;23.80;19.20
31369;DHT22;18004;48.416;10.066;2023-07-30T12:55:26;24.20;19.50
31369;DHT22;18004;48.416;10.066;2023-07-30T13:33:53;24.50;19.80
31369;DHT22;18004;48.416;10.066;2023-07-30T13:45:19;24.20;19.50
31369;DHT22;18004;48.416;10.066;2023-07-30T14:07:28;24.90;19.30
31369;DHT22;18004;48.416;10.066;2023-07-30T14:30:11;24.60;16.70
31369;DHT22;18004;48.416;10.066;2023-07-30T14:59:11;24.90;13.70
31369;DHT22;18004;48.416;10.066;2023-07-30T15:01:41;23.40;30.80
31369;DHT22;18004;48.416;10.066;2023-07-30T15:04:15;23.10;38.80
31369;DHT22;18004;48.416;10.066;2023-07-30T15:11:05;23.00;43.00
31369;DHT22;18004;48.416;10.066;2023-07-30T15:13:54;23.10;43.20
31369;DHT22;18004;48.416;10.066;2023-07-30T15:24:12;23.40;38.50
31369;DHT22;18004;48.416;10.066;2023-07-30T15:26:52;23.30;36.00
31369;DHT22;18004;48.416;10.066;2023-07-30T16:25:57;23.40;29.40
31369;DHT22;18004;48.416;10.066;2023-07-30T16:28:23;22.90;34.50
31369;DHT22;18004;48.416;10.066;2023-07-30T16:31:14;22.90;32.60
31369;DHT22;18004;48.416;10.066;2023-07-30T16:33:40;22.60;37.90
31369;DHT22;18004;48.416;10.066;2023-07-30T16:36:09;22.80;40.20
31369;DHT22;18004;48.416;10.066;2023-07-30T16:38:43;22.60;37.20
31369;DHT22;18004;48.416;10.066;2023-07-30T16:41:18;22.40;38.70
31369;DHT22;18004;48.416;10.066;2023-07-30T16:47:52;22.50;42.50
31369;DHT22;18004;48.416;10.066;2023-07-30T16:50:36;22.40;42.40
31369;DHT22;18004;48.416;10.066;2023-07-30T16:53:05;22.30;47.10
31369;DHT22;18004;48.416;10.066;2023-07-30T16:55:33;22.30;48.40
31369;DHT22;18004;48.416;10.066;2023-07-30T16:58:04;22.30;42.30
31369;DHT22;18004;48.416;10.066;2023-07-30T17:04:19;21.90;41.90
31369;DHT22;18004;48.416;10.066;2023-07-30T17:07:43;21.80;44.00
31369;DHT22;18004;48.416;10.066;2023-07-30T17:10:23;21.80;41.80
31369;DHT22;18004;48.416;10.066;2023-07-30T17:12:49;21.70;43.70
31369;DHT22;18004;48.416;10.066;2023-07-30T17:15:37;21.70;43.10
31369;DHT22;18004;48.416;10.066;2023-07-30T17:21:47;21.20;44.70
31369;DHT22;18004;48.416;10.066;2023-07-30T17:24:15;21.20;46.10
31369;DHT22;18004;48.416;10.066;2023-07-30T17:26:41;21.00;50.00
31369;DHT22;18004;48.416;10.066;2023-07-30T17:29:20;21.00;48.20
31369;DHT22;18004;48.416;10.066;2023-07-30T17:31:53;20.90;49.30
31369;DHT22;18004;48.416;10.066;2023-07-30T17:34:20;20.90;51.10
31369;DHT22;18004;48.416;10.066;2023-07-30T17:44:02;20.60;61.60
31369;DHT22;18004;48.416;10.066;2023-07-30T18:01:41;20.60;60.00
31369;DHT22;18004;48.416;10.066;2023-07-30T18:05:12;20.50;61.00
31369;DHT22;18004;48.416;10.066;2023-07-30T18:11:31;20.30;63.40
31369;DHT22;18004;48.416;10.066;2023-07-30T18:14:00;20.40;61.80
31369;DHT22;18004;48.416;10.066;2023-07-30T18:20:47;20.10;56.90
31369;DHT22;18004;48.416;10.066;2023-07-30T18:27:47;19.80;56.20
31369;DHT22;18004;48.416;10.066;2023-07-30T18:34:30;19.60;60.20
31369;DHT22;18004;48.416;10.066;2023-07-30T18:37:39;19.60;55.60
31369;DHT22;18004;48.416;10.066;2023-07-30T18:45:08;19.40;53.10
31369;DHT22;18004;48.416;10.066;2023-07-30T18:48:35;19.40;53.80
31369;DHT22;18004;48.416;10.066;2023-07-30T18:51:27;19.30;56.60
31369;DHT22;18004;48.416;10.066;2023-07-30T18:53:58;19.30;56.60
31369;DHT22;18004;48.416;10.066;2023-07-30T19:00:14;19.20;48.20
31369;DHT22;18004;48.416;10.066;2023-07-30T19:02:40;19.30;50.20
31369;DHT22;18004;48.416;10.066;2023-07-30T19:05:19;19.30;46.70
31369;DHT22;18004;48.416;10.066;2023-07-30T19:07:51;19.30;48.60
31369;DHT22;18004;48.416;10.066;2023-07-30T19:10:30;19.30;47.30
31369;DHT22;18004;48.416;10.066;2023-07-30T19:13:11;19.20;48.50
31369;DHT22;18004;48.416;10.066;2023-07-30T19:15:43;19.10;48.30
31369;DHT22;18004;48.416;10.066;2023-07-30T19:18:08;19.10;49.30
31369;DHT22;18004;48.416;10.066;2023-07-30T19:20:35;19.00;49.70
31369;DHT22;18004;48.416;10.066;2023-07-30T19:23:10;18.90;53.30
31369;DHT22;18004;48.416;10.066;2023-07-30T19:25:37;18.80;53.90
31369;DHT22;18004;48.416;10.066;2023-07-30T19:28:03;18.90;56.20
31369;DHT22;18004;48.416;10.066;2023-07-30T19:30:38;18.90;57.10
31369;DHT22;18004;48.416;10.066;2023-07-30T19:33:17;19.00;58.10
31369;DHT22;18004;48.416;10.066;2023-07-30T19:35:58;19.00;61.00
31369;DHT22;18004;48.416;10.066;2023-07-30T19:38:24;19.00;57.10
31369;DHT22;18004;48.416;10.066;2023-07-30T19:40:53;18.90;54.20
31369;DHT22;18004;48.416;10.066;2023-07-30T19:43:23;18.90;56.30
31369;DHT22;18004;48.416;10.066;2023-07-30T19:46:32;18.90;55.00
31369;DHT22;18004;48.416;10.066;2023-07-30T19:48:59;18.90;54.90
31369;DHT22;18004;48.416;10.066;2023-07-30T19:51:30;18.90;57.60
31369;DHT22;18004;48.416;10.066;2023-07-30T19:54:04;18.90;56.90
31369;DHT22;18004;48.416;10.066;2023-07-30T19:56:41;18.80;59.40
31369;DHT22;18004;48.416;10.066;2023-07-30T19:59:22;18.80;58.50
31369;DHT22;18004;48.416;10.066;2023-07-30T20:05:36;18.50;56.90
31369;DHT22;18004;48.416;10.066;2023-07-30T20:08:09;18.40;59.80
31369;DHT22;18004;48.416;10.066;2023-07-30T20:10:52;18.50;59.70
31369;DHT22;18004;48.416;10.066;2023-07-30T20:13:45;18.50;63.30
31369;DHT22;18004;48.416;10.066;2023-07-30T20:16:31;18.50;65.70
31369;DHT22;18004;48.416;10.066;2023-07-30T20:19:17;18.50;69.20
31369;DHT22;18004;48.416;10.066;2023-07-30T20:21:49;18.50;69.50
31369;DHT22;18004;48.416;10.066;2023-07-30T20:49:44;17.80;80.90
31369;DHT22;18004;48.416;10.066;2023-07-30T20:52:10;17.70;81.70
31369;DHT22;18004;48.416;10.066;2023-07-30T20:54:35;17.50;85.30
31369;DHT22;18004;48.416;10.066;2023-07-30T20:57:01;17.40;89.90
31369;DHT22;18004;48.416;10.066;2023-07-30T20:59:30;17.40;90.50
31369;DHT22;18004;48.416;10.066;2023-07-30T21:02:05;17.40;91.30
31369;DHT22;18004;48.416;10.066;2023-07-30T21:04:52;17.40;92.30
31369;DHT22;18004;48.416;10.066;2023-07-30T21:07:25;17.40;91.50
31369;DHT22;18004;48.416;10.066;2023-07-30T21:11:03;17.30;92.00
31369;DHT22;18004;48.416;10.066;2023-07-30T21:14:40;17.30;93.40
31369;DHT22;18004;48.416;10.066;2023-07-30T21:17:05;17.30;93.30
31369;DHT22;18004;48.416;10.066;2023-07-30T21:19:37;17.30;93.60
31369;DHT22;18004;48.416;10.066;2023-07-30T21:22:29;17.20;94.80
31369;DHT22;18004;48.416;10.066;2023-07-30T21:27:59;17.20;95.60
31369;DHT22;18004;48.416;10.066;2023-07-30T21:30:27;17.10;96.40
31369;DHT22;18004;48.416;10.066;2023-07-30T21:32:58;17.10;96.80
31369;DHT22;18004;48.416;10.066;2023-07-30T21:35:26;17.00;97.40
31369;DHT22;18004;48.416;10.066;2023-07-30T21:37:57;16.90;97.20
31369;DHT22;18004;48.416;10.066;2023-07-30T21:40:23;16.90;97.70
31369;DHT22;18004;48.416;10.066;2023-07-30T21:42:49;16.90;97.50
31369;DHT22;18004;48.416;10.066;2023-07-30T21:45:14;16.80;98.10
31369;DHT22;18004;48.416;10.066;2023-07-30T21:47:40;16.80;98.40
31369;DHT22;18004;48.416;10.066;2023-07-30T21:50:06;16.80;98.60
31369;DHT22;18004;48.416;10.066;2023-07-30T21:52:32;16.70;98.90
31369;DHT22;18004;48.416;10.066;2023-07-30T21:54:58;16.70;98.80
31369;DHT22;18004;48.416;10.066;2023-07-30T21:57:24;16.60;99.10
31369;DHT22;18004;48.416;10.066;2023-07-30T21:59:51;16.60;99.50
31369;DHT22;18004;48.416;10.066;2023-07-30T22:02:18;16.50;99.90
31369;DHT22;18004;48.416;10.066;2023-07-30T22:04:44;16.40;99.90
31369;DHT22;18004;48.416;10.066;2023-07-30T22:07:10;16.30;99.90
31369;DHT22;18004;48.416;10.066;2023-07-30T22:09:39;16.30;99.90
31369;DHT22;18004;48.416;10.066;2023-07-30T22:12:06;16.20;99.90
31369;DHT22;18004;48.416;10.066;2023-07-30T22:14:32;16.20;99.90
31369;DHT22;18004;48.416;10.066;2023-07-30T22:16:58;16.10;99.90
31369;DHT22;18004;48.416;10.066;2023-07-30T22:19:24;16.20;99.90
31369;DHT22;18004;48.416;10.066;2023-07-30T22:21:50;16.20;99.90
31369;DHT22;18004;48.416;10.066;2023-07-30T22:24:16;16.10;99.90
31369;DHT22;18004;48.416;10.066;2023-07-30T22:26:42;16.10;99.90
31369;DHT22;18004;48.416;10.066;2023-07-30T22:29:07;16.00;99.90
31369;DHT22;18004;48.416;10.066;2023-07-30T22:31:33;16.00;99.90
31369;DHT22;18004;48.416;10.066;2023-07-30T22:33:59;16.00;99.90
31369;DHT22;18004;48.416;10.066;2023-07-30T22:36:24;15.90;99.90
31369;DHT22;18004;48.416;10.066;2023-07-30T22:38:50;15.90;99.90
31369;DHT22;18004;48.416;10.066;2023-07-30T22:41:16;15.80;99.90
31369;DHT22;18004;48.416;10.066;2023-07-30T22:43:42;15.80;99.90
31369;DHT22;18004;48.416;10.066;2023-07-30T22:46:07;15.80;99.90
31369;DHT22;18004;48.416;10.066;2023-07-30T22:48:33;15.80;99.90
31369;DHT22;18004;48.416;10.066;2023-07-30T22:50:59;15.70;99.90
31369;DHT22;18004;48.416;10.066;2023-07-30T22:53:24;15.70;99.90
31369;DHT22;18004;48.416;10.066;2023-07-30T22:55:50;15.60;99.90
31369;DHT22;18004;48.416;10.066;2023-07-30T22:58:16;15.60;99.90
31369;DHT22;18004;48.416;10.066;2023-07-30T23:00:42;15.60;99.90
31369;DHT22;18004;48.416;10.066;2023-07-30T23:03:08;15.60;99.90
31369;DHT22;18004;48.416;10.066;2023-07-30T23:05:33;15.40;99.90
31369;DHT22;18004;48.416;10.066;2023-07-30T23:07:59;15.40;99.90
31369;DHT22;18004;48.416;10.066;2023-07-30T23:10:25;15.40;99.90
31369;DHT22;18004;48.416;10.066;2023-07-30T23:12:50;15.40;99.90
31369;DHT22;18004;48.416;10.066;2023-07-30T23:15:16;15.40;99.90
31369;DHT22;18004;48.416;10.066;2023-07-30T23:17:42;15.30;99.90
31369;DHT22;18004;48.416;10.066;2023-07-30T23:20:08;15.30;99.90
31369;DHT22;18004;48.416;10.066;2023-07-30T23:22:34;15.30;99.90
31369;DHT22;18004;48.416;10.066;2023-07-30T23:25:00;15.30;99.90
31369;DHT22;18004;48.416;10.066;2023-07-30T23:27:25;15.20;99.90
31369;DHT22;18004;48.416;10.066;2023-07-30T23:29:51;15.10;99.90
31369;DHT22;18004;48.416;10.066;2023-07-30T23:32:17;15.00;99.90
31369;DHT22;18004;48.416;10.066;2023-07-30T23:34:42;15.00;99.90
31369;DHT22;18004;48.416;10.066;2023-07-30T23:37:08;15.00;99.90
31369;DHT22;18004;48.416;10.066;2023-07-30T23:39:34;15.00;99.90
31369;DHT22;18004;48.416;10.066;2023-07-30T23:42:00;15.00;99.90
31369;DHT22;18004;48.416;10.066;2023-07-30T23:44:25;15.00;99.90
31369;DHT22;18004;48.416;10.066;2023-07-30T23:46:51;14.90;99.90
31369;DHT22;18004;48.416;10.066;2023-07-30T23:49:17;14.90;99.90
31369;DHT22;18004;48.416;10.066;2023-07-30T23:51:42;14.90;99.90
31369;DHT22;18004;48.416;10.066;2023-07-30T23:54:08;14.90;99.90
31369;DHT22;18004;48.416;10.066;2023-07-30T23:56:34;14.80;99.90
31369;DHT22;18004;48.416;10.066;2023-07-30T23:59:00;14.70;99.90
